Time;durP1;ratioP1;P1;durP2;ratioP2;P2;SDS_P1;SDS_P2;PMS_P1;PMS_P2;Temp;Humidity;BMP_temperature;BMP_pressure;BME280_temperature;BME280_humidity;BME280_pressure;Samples;Min_cycle;Max_cycle;Signal;HPM_P1;HPM_P2
2023/02/13 00:00:19;;;;;;;14.32;6.32;;;;;;;11.02;45.10;103443.00;5026052;28;20028;-62
2023/02/13 00:02:44;;;;;;;19.92;6.47;;;;;;;10.98;45.64;103429.78;5046702;28;20491;-62
2023/02/13 00:05:10;;;;;;;16.67;7.45;;;;;;;10.99;45.72;103431.53;5028168;28;20052;-63
2023/02/13 00:07:35;;;;;;;17.25;6.85;;;;;;;10.98;45.59;103429.78;5014228;28;20092;-63
2023/02/13 00:10:01;;;;;;;15.25;6.85;;;;;;;10.96;45.48;103427.16;5047954;28;20448;-63
2023/02/13 00:12:26;;;;;;;17.45;6.85;;;;;;;10.87;45.29;103414.16;5051284;28;20025;-62
2023/02/13 00:14:52;;;;;;;18.40;7.60;;;;;;;10.92;45.21;103430.91;5016419;28;20068;-62
2023/02/13 00:17:18;;;;;;;17.17;7.72;;;;;;;10.87;45.82;103416.84;5032993;28;20033;-62
2023/02/13 00:19:43;;;;;;;16.67;6.93;;;;;;;10.88;45.35;103417.72;5032900;28;20063;-63
2023/02/13 00:22:09;;;;;;;21.73;8.57;;;;;;;10.85;45.49;103418.72;5050721;28;20037;-62
2023/02/13 00:24:34;;;;;;;23.83;8.65;;;;;;;10.84;45.09;103416.97;5050516;28;20036;-63
2023/02/13 00:27:00;;;;;;;27.63;9.73;;;;;;;10.82;45.51;103421.53;5033586;28;20022;-62
2023/02/13 00:29:25;;;;;;;21.88;7.80;;;;;;;10.82;45.16;103418.84;5033830;28;20067;-63
2023/02/13 00:31:50;;;;;;;22.10;8.15;;;;;;;10.81;45.45;103425.16;5033761;28;20112;-62
2023/02/13 00:34:16;;;;;;;20.02;8.18;;;;;;;10.80;45.50;103419.88;5033527;28;20033;-62
2023/02/13 00:36:41;;;;;;;24.15;9.45;;;;;;;10.76;45.28;103421.81;5033646;28;20037;-63
2023/02/13 00:39:09;;;;;;;20.33;8.25;;;;;;;10.74;45.24;103414.75;5034039;28;20029;-62
2023/02/13 00:41:34;;;;;;;22.23;7.85;;;;;;;10.73;45.47;103424.63;5017089;28;20076;-62
2023/02/13 00:43:59;;;;;;;18.42;8.30;;;;;;;10.70;45.42;103413.16;5051399;28;20489;-62
2023/02/13 00:46:25;;;;;;;21.27;8.93;;;;;;;10.67;45.49;103414.16;5033589;28;20116;-63
2023/02/13 00:48:50;;;;;;;21.30;8.43;;;;;;;10.66;45.40;103417.78;5051510;28;20403;-62
2023/02/13 00:51:16;;;;;;;14.50;7.55;;;;;;;10.65;45.71;103415.16;5017556;28;20040;-62
2023/02/13 00:53:41;;;;;;;18.42;7.30;;;;;;;10.64;45.01;103408.91;5051321;28;20033;-62
2023/02/13 00:56:07;;;;;;;19.52;8.50;;;;;;;10.62;45.68;103408.13;5050302;28;20561;-62
2023/02/13 00:58:32;;;;;;;19.67;8.00;;;;;;;10.59;46.02;103405.56;5033639;28;20064;-62
2023/02/13 01:00:58;;;;;;;20.02;8.13;;;;;;;10.61;45.46;103409.03;5017091;28;20036;-62
2023/02/13 01:03:24;;;;;;;16.35;7.47;;;;;;;10.61;45.33;103409.03;5033944;28;20029;-62
2023/02/13 01:05:50;;;;;;;19.55;8.50;;;;;;;10.60;45.35;103412.69;5035507;28;20044;-62
2023/02/13 01:08:16;;;;;;;18.35;7.10;;;;;;;10.58;45.35;103401.13;5037525;28;20037;-62
2023/02/13 01:10:44;;;;;;;25.65;7.93;;;;;;;10.58;44.98;103402.97;5020651;28;20040;-62
2023/02/13 01:13:10;;;;;;;25.42;7.75;;;;;;;10.58;45.55;103409.19;5037371;28;20033;-62
2023/02/13 01:15:36;;;;;;;23.15;8.80;;;;;;;10.54;45.64;103404.91;5054675;28;20032;-62
2023/02/13 01:18:02;;;;;;;18.35;7.50;;;;;;;10.54;45.58;103402.22;5020791;28;20028;-62
2023/02/13 01:20:28;;;;;;;18.40;8.10;;;;;;;10.55;45.36;103408.47;5036984;28;20037;-63
2023/02/13 01:22:54;;;;;;;18.88;7.05;;;;;;;10.52;45.57;103410.31;5020464;28;20045;-62
2023/02/13 01:25:20;;;;;;;20.50;8.27;;;;;;;10.51;45.55;103407.72;5036180;28;20033;-62
2023/02/13 01:27:45;;;;;;;23.15;9.25;;;;;;;10.47;45.16;103400.72;5026679;28;20021;-62
2023/02/13 01:30:13;;;;;;;20.30;7.25;;;;;;;10.44;44.79;103408.94;5027513;28;20112;-62
2023/02/13 01:32:39;;;;;;;20.05;7.18;;;;;;;10.38;45.30;103402.03;5008914;28;20501;-62
2023/02/13 01:35:05;;;;;;;11.93;5.35;;;;;;;10.37;45.42;103408.31;5027266;28;20063;-62
2023/02/13 01:37:31;;;;;;;16.35;6.95;;;;;;;10.34;45.21;103410.22;5004872;28;20064;-62
2023/02/13 01:39:56;;;;;;;16.05;6.68;;;;;;;10.30;45.42;103405.94;5042619;28;20057;-63
2023/02/13 01:42:30;;;;;;;17.45;7.55;;;;;;;10.28;45.40;103410.47;5043324;28;20434;-62
2023/02/13 01:44:58;;;;;;;18.30;7.25;;;;;;;10.25;45.14;103405.25;5024793;28;20038;-62
2023/02/13 01:47:32;;;;;;;17.67;7.28;;;;;;;10.22;45.06;103408.06;5025115;28;20045;-62
2023/02/13 01:50:26;;;;;;;22.65;8.27;;;;;;;10.19;45.19;103410.88;5048824;28;20036;-62
2023/02/13 01:52:59;;;;;;;27.70;9.93;;;;;;;10.16;45.46;103405.66;5033592;28;20029;-62
2023/02/13 01:55:26;;;;;;;22.55;7.20;;;;;;;10.13;45.17;103408.44;5036302;28;20037;-63
2023/02/13 01:58:07;;;;;;;15.57;7.03;;;;;;;10.09;45.34;103404.09;5054082;28;20033;-62
2023/02/13 02:00:34;;;;;;;19.38;7.45;;;;;;;10.10;45.15;103411.22;5054440;28;20083;-62
2023/02/13 02:03:16;;;;;;;23.35;9.85;;;;;;;10.09;45.37;103409.47;5036212;28;20434;-62
2023/02/13 02:05:42;;;;;;;22.02;7.88;;;;;;;10.06;45.49;103412.25;5019736;28;20036;-62
2023/02/13 02:08:10;;;;;;;20.20;7.10;;;;;;;10.03;45.65;103405.22;5036067;28;20033;-62
2023/02/13 02:10:36;;;;;;;20.75;6.85;;;;;;;10.02;45.33;103413.34;5036054;28;20033;-62
2023/02/13 02:13:13;;;;;;;15.38;7.03;;;;;;;9.98;45.71;103398.31;5036526;28;20044;-62
2023/02/13 02:15:41;;;;;;;18.75;7.43;;;;;;;9.95;44.69;103408.22;5035885;28;20025;-62
2023/02/13 02:18:15;;;;;;;15.02;6.57;;;;;;;9.94;45.29;103411.81;5035297;28;20025;-62
2023/02/13 02:21:08;;;;;;;15.30;6.32;;;;;;;9.90;45.03;103407.53;5036007;28;20052;-62
2023/02/13 02:23:45;;;;;;;11.18;6.22;;;;;;;9.83;45.31;103406.03;5053664;28;20064;-62
2023/02/13 02:26:45;;;;;;;14.57;6.03;;;;;;;9.81;45.04;103412.38;5053504;28;20036;-62
2023/02/13 02:29:19;;;;;;;15.10;6.60;;;;;;;9.77;45.23;103406.28;5035792;28;20035;-61
2023/02/13 02:31:54;;;;;;;16.52;6.80;;;;;;;9.75;45.85;103405.47;5053438;28;20056;-62
2023/02/13 02:34:40;;;;;;;20.63;8.15;;;;;;;9.73;45.54;103406.47;5053274;28;20083;-62
2023/02/13 02:37:15;;;;;;;14.98;7.35;;;;;;;9.74;45.48;103409.06;5035460;28;20028;-62
2023/02/13 02:39:49;;;;;;;19.02;8.50;;;;;;;9.73;44.79;103407.34;5053148;28;20024;-62
2023/02/13 02:42:24;;;;;;;17.85;7.60;;;;;;;9.74;45.34;103400.19;5053749;28;20040;-62
2023/02/13 02:45:03;;;;;;;16.92;7.20;;;;;;;9.72;45.08;103410.06;5035415;28;20029;-62
2023/02/13 02:50:42;;;;;;;13.70;6.32;;;;;;;9.65;45.13;103411.25;5038001;28;20413;-62
2023/02/13 02:53:16;;;;;;;21.20;6.78;;;;;;;9.62;45.34;103409.56;5035328;28;20039;-62
2023/02/13 02:55:54;;;;;;;17.30;7.00;;;;;;;9.59;45.00;103404.34;5052863;28;20048;-63
2023/02/13 03:07:07;;;;;;;17.52;7.20;;;;;;;9.43;45.43;103408.53;5037680;28;20051;-62
2023/02/13 03:15:14;;;;;;;19.58;7.97;;;;;;;9.40;45.68;103413.13;5016145;28;20053;-62
2023/02/13 03:23:53;;;;;;;15.55;6.57;;;;;;;9.37;45.56;103414.13;5037473;28;20039;-62
2023/02/13 03:26:48;;;;;;;17.98;7.57;;;;;;;9.37;45.51;103400.75;5034473;28;20063;-63
2023/02/13 03:32:35;;;;;;;19.13;8.27;;;;;;;9.36;44.81;103417.72;5037169;28;20531;-62
2023/02/13 03:38:01;;;;;;;16.33;7.20;;;;;;;9.34;45.37;103404.41;5052191;28;20523;-62
2023/02/13 03:41:31;;;;;;;23.10;7.82;;;;;;;9.36;45.25;103415.03;5017693;28;20425;-62
2023/02/13 03:44:09;;;;;;;16.50;6.07;;;;;;;9.34;45.28;103414.22;5049029;28;20029;-62
2023/02/13 03:46:38;;;;;;;27.38;7.65;;;;;;;9.27;44.85;103413.56;5052181;28;20680;-63
2023/02/13 03:51:54;;;;;;;17.42;7.07;;;;;;;9.26;45.60;103416.31;5052457;28;20040;-62
2023/02/13 04:00:24;;;;;;;22.98;7.30;;;;;;;9.19;45.54;103422.81;5037380;28;20094;-62
2023/02/13 04:02:56;;;;;;;21.20;7.70;;;;;;;9.18;45.34;103429.97;5034066;28;20029;-63
2023/02/13 04:05:24;;;;;;;20.05;7.32;;;;;;;9.15;45.26;103419.41;5034254;28;20036;-63
2023/02/13 04:07:50;;;;;;;15.00;7.30;;;;;;;9.14;45.53;103419.44;5051792;28;20049;-62
2023/02/13 04:10:17;;;;;;;18.08;7.13;;;;;;;9.15;45.65;103418.50;5017340;28;20051;-62
2023/02/13 04:12:51;;;;;;;15.63;7.15;;;;;;;9.16;45.62;103428.25;5033868;28;20017;-62
2023/02/13 04:15:21;;;;;;;20.13;8.95;;;;;;;9.12;45.68;103423.97;5052165;28;20029;-62
2023/02/13 04:18:11;;;;;;;21.50;8.43;;;;;;;9.12;45.97;103429.31;5033749;28;20116;-62
2023/02/13 04:20:38;;;;;;;25.92;8.25;;;;;;;9.11;45.37;103438.25;5038889;28;20111;-63
2023/02/13 04:23:06;;;;;;;27.73;7.13;;;;;;;9.08;45.19;103425.88;5001146;28;20033;-62
2023/02/13 04:25:32;;;;;;;19.52;6.93;;;;;;;9.10;45.54;103425.84;5017171;28;20040;-62
2023/02/13 04:27:57;;;;;;;19.15;7.38;;;;;;;9.10;45.96;103423.16;5033800;28;20029;-63
2023/02/13 04:30:22;;;;;;;33.70;7.60;;;;;;;9.07;45.63;103424.13;5051986;28;20568;-62
2023/02/13 04:32:48;;;;;;;26.90;6.75;;;;;;;9.07;45.58;103421.44;5033537;28;20060;-62
2023/02/13 04:35:13;;;;;;;16.58;6.82;;;;;;;9.07;45.58;103431.28;5051187;28;20037;-62
2023/02/13 04:37:39;;;;;;;20.80;7.65;;;;;;;9.00;45.49;103421.72;5033897;28;20522;-63
2023/02/13 04:40:05;;;;;;;26.10;7.57;;;;;;;9.00;46.10;103427.97;5034324;28;20082;-62
2023/02/13 04:42:30;;;;;;;33.72;8.15;;;;;;;8.96;46.00;103428.97;5038148;28;20447;-62
2023/02/13 04:44:56;;;;;;;21.98;6.78;;;;;;;8.93;45.27;103423.78;5055606;28;20032;-62
2023/02/13 04:47:21;;;;;;;28.15;7.97;;;;;;;8.91;45.66;103419.38;5037703;28;20416;-64
2023/02/13 04:49:46;;;;;;;16.17;5.63;;;;;;;8.87;45.66;103417.75;5055325;28;20037;-62
2023/02/13 04:52:14;;;;;;;20.63;6.47;;;;;;;8.88;45.24;103417.69;5037555;28;20033;-62
2023/02/13 04:54:39;;;;;;;31.83;7.75;;;;;;;8.84;44.78;103415.19;5055361;28;20572;-62
2023/02/13 04:57:04;;;;;;;28.77;7.90;;;;;;;8.85;45.56;103414.28;5037027;28;20172;-62
2023/02/13 04:59:30;;;;;;;21.30;7.30;;;;;;;8.83;45.55;103416.13;5034226;28;20386;-63
2023/02/13 05:01:56;;;;;;;18.80;6.57;;;;;;;8.81;45.56;103417.97;5037296;28;20555;-62
2023/02/13 05:04:21;;;;;;;27.77;6.70;;;;;;;8.78;46.14;103413.63;5037395;28;20039;-62
2023/02/13 05:06:46;;;;;;;17.98;6.57;;;;;;;8.76;45.65;103411.00;5055039;28;20114;-62
2023/02/13 05:09:12;;;;;;;20.65;6.88;;;;;;;8.74;45.88;103406.63;5055652;28;20021;-63
2023/02/13 05:11:37;;;;;;;24.75;7.45;;;;;;;8.74;45.57;103410.16;5020751;28;20505;-62
2023/02/13 05:14:02;;;;;;;19.13;6.63;;;;;;;8.71;45.31;103406.72;5035853;28;20037;-62
2023/02/13 05:16:28;;;;;;;42.78;8.60;;;;;;;8.72;46.10;103414.72;5017390;28;20033;-62
2023/02/13 05:18:53;;;;;;;25.42;7.28;;;;;;;8.71;45.75;103412.94;5033801;28;20044;-62
2023/02/13 05:24:04;;;;;;;23.27;7.03;;;;;;;8.66;45.94;103404.22;5035069;28;20076;-62
2023/02/13 05:26:30;;;;;;;19.40;6.80;;;;;;;8.64;45.77;103408.75;5017076;28;20463;-62
2023/02/13 05:31:39;;;;;;;15.48;6.28;;;;;;;8.61;45.25;103410.66;5033701;28;20052;-62
2023/02/13 05:34:04;;;;;;;18.23;6.55;;;;;;;8.60;45.89;103408.91;5034577;28;20509;-62
2023/02/13 05:36:29;;;;;;;15.02;6.32;;;;;;;8.59;45.01;103405.38;5033641;28;20110;-62
2023/02/13 05:38:55;;;;;;;12.60;5.25;;;;;;;8.59;45.54;103412.53;5000267;28;20068;-62
2023/02/13 05:41:20;;;;;;;13.52;5.95;;;;;;;8.60;45.77;103415.13;5016678;28;20540;-62
2023/02/13 05:43:45;;;;;;;12.82;5.55;;;;;;;8.59;45.60;103408.06;5034500;28;20030;-62
2023/02/13 05:46:11;;;;;;;11.13;5.18;;;;;;;8.58;46.33;103411.63;5033000;28;20075;-62
2023/02/13 05:48:37;;;;;;;9.88;5.13;;;;;;;8.59;45.87;103418.75;5034287;28;20044;-63
2023/02/13 05:51:02;;;;;;;8.85;5.30;;;;;;;8.58;46.10;103414.31;5016948;28;20417;-62
2023/02/13 05:53:28;;;;;;;12.68;5.57;;;;;;;8.60;46.11;103414.25;5033010;28;20163;-63
2023/02/13 05:55:54;;;;;;;11.30;6.35;;;;;;;8.61;45.24;103411.53;5016642;28;20446;-62
2023/02/13 05:58:19;;;;;;;10.02;5.28;;;;;;;8.64;45.89;103422.13;5016596;28;20163;-63
2023/02/13 06:00:45;;;;;;;9.50;5.28;;;;;;;8.67;46.05;103416.69;5016533;28;20025;-62
2023/02/13 06:03:10;;;;;;;12.27;5.82;;;;;;;8.65;45.44;103407.81;5016880;28;20103;-62
2023/02/13 06:05:36;;;;;;;11.93;6.25;;;;;;;8.70;46.59;103416.56;5016445;28;20429;-62
2023/02/13 06:08:01;;;;;;;12.95;5.45;;;;;;;8.69;45.83;103414.81;5034018;28;20083;-63
2023/02/13 06:10:27;;;;;;;14.85;6.68;;;;;;;8.69;45.58;103411.25;5047745;28;20031;-62
2023/02/13 06:12:52;;;;;;;14.07;7.10;;;;;;;8.68;45.23;103413.06;5054071;28;20044;-62
2023/02/13 06:15:17;;;;;;;13.60;6.63;;;;;;;8.66;45.56;103409.56;5054329;28;20033;-62
2023/02/13 06:17:43;;;;;;;13.50;6.25;;;;;;;8.65;45.93;103407.81;5035787;28;20040;-62
2023/02/13 06:20:08;;;;;;;15.57;7.25;;;;;;;8.63;45.77;103414.13;5035904;28;20439;-63
2023/02/13 06:22:34;;;;;;;16.52;6.93;;;;;;;8.60;44.56;103401.75;5035875;28;20029;-62
2023/02/13 06:24:59;;;;;;;15.93;8.10;;;;;;;8.57;46.16;103401.88;5053536;28;20572;-63
2023/02/13 06:27:25;;;;;;;14.13;6.72;;;;;;;8.59;44.89;103404.50;5019383;28;20029;-62
2023/02/13 06:29:50;;;;;;;16.30;7.50;;;;;;;8.56;45.90;103402.81;5053780;28;20037;-62
2023/02/13 06:32:15;;;;;;;20.08;8.18;;;;;;;8.55;45.57;103406.41;5019080;28;20116;-62
2023/02/13 06:34:41;;;;;;;13.02;6.78;;;;;;;8.54;46.01;103404.66;5035718;28;20037;-62
2023/02/13 06:37:06;;;;;;;12.90;6.43;;;;;;;8.54;46.14;103404.66;5053552;28;20378;-62
2023/02/13 06:39:31;;;;;;;14.30;7.82;;;;;;;8.52;46.12;103406.50;5035682;28;20075;-62
2023/02/13 06:41:57;;;;;;;14.82;7.30;;;;;;;8.49;46.10;103406.59;5035562;28;20060;-63
2023/02/13 06:44:22;;;;;;;16.88;6.65;;;;;;;8.48;46.04;103406.66;5035513;28;20508;-62
2023/02/13 06:46:47;;;;;;;21.35;6.80;;;;;;;8.45;45.67;103404.09;5024003;28;20044;-63
2023/02/13 06:49:13;;;;;;;15.25;6.30;;;;;;;8.44;45.87;103408.56;5033577;28;20060;-62
2023/02/13 06:51:38;;;;;;;17.65;6.88;;;;;;;8.44;45.43;103416.56;5038236;28;20398;-62
2023/02/13 06:54:03;;;;;;;29.58;7.45;;;;;;;8.45;46.07;103426.34;5015743;28;20151;-63
2023/02/13 06:56:29;;;;;;;14.00;6.88;;;;;;;8.46;45.70;103422.72;5004204;28;20037;-63
2023/02/13 06:58:54;;;;;;;15.85;6.15;;;;;;;8.48;45.58;103417.34;5021332;28;20044;-62
2023/02/13 07:01:20;;;;;;;20.52;6.95;;;;;;;8.49;46.19;103419.09;5032565;28;20033;-62
2023/02/13 07:03:47;;;;;;;18.08;6.63;;;;;;;8.48;45.51;103409.34;5012306;28;20037;-64
2023/02/13 07:06:19;;;;;;;17.33;7.85;;;;;;;8.49;46.12;103416.41;5054415;28;20044;-61
2023/02/13 07:08:45;;;;;;;16.33;7.10;;;;;;;8.48;45.70;103412.91;5053849;28;20048;-62
2023/02/13 07:11:21;;;;;;;20.27;7.72;;;;;;;8.49;45.45;103417.28;5035834;28;20032;-62
2023/02/13 07:13:46;;;;;;;14.00;6.72;;;;;;;8.47;46.38;103412.94;5036090;28;20151;-63
2023/02/13 07:16:12;;;;;;;12.95;6.43;;;;;;;8.49;45.45;103417.28;5053662;28;20115;-62
2023/02/13 07:18:37;;;;;;;16.73;6.95;;;;;;;8.52;45.44;103427.00;5035743;28;20040;-62
2023/02/13 07:21:03;;;;;;;12.45;6.13;;;;;;;8.53;45.45;103424.28;5035957;28;20045;-62
2023/02/13 07:23:28;;;;;;;11.40;6.60;;;;;;;8.57;46.13;103422.41;5035577;28;20045;-62
2023/02/13 07:25:53;;;;;;;12.43;6.57;;;;;;;8.61;45.77;103427.56;5035517;28;20086;-62
2023/02/13 07:28:19;;;;;;;10.27;5.70;;;;;;;8.59;45.74;103413.41;5053282;28;20539;-62
2023/02/13 07:30:44;;;;;;;10.98;5.47;;;;;;;8.72;45.38;103425.41;5035562;28;20102;-62
2023/02/13 07:33:09;;;;;;;12.60;5.78;;;;;;;8.76;45.60;103427.03;5036163;28;20033;-62
2023/02/13 07:35:36;;;;;;;13.73;6.05;;;;;;;8.76;45.02;103419.03;5035553;28;20033;-62
2023/02/13 07:38:03;;;;;;;11.02;5.97;;;;;;;8.91;45.68;103430.06;5035729;28;20033;-63
2023/02/13 07:40:28;;;;;;;12.77;6.70;;;;;;;8.99;45.97;103438.72;5052641;28;20041;-63
2023/02/13 07:42:54;;;;;;;12.57;7.00;;;;;;;9.07;45.59;103436.63;5018861;28;20044;-62
2023/02/13 07:45:20;;;;;;;12.52;6.63;;;;;;;9.13;45.36;103436.38;5019410;28;20044;-63
2023/02/13 07:47:45;;;;;;;10.57;5.80;;;;;;;9.23;45.40;103427.13;5053031;28;20029;-63
2023/02/13 07:50:11;;;;;;;10.30;5.88;;;;;;;9.30;45.38;103426.84;5035121;28;20040;-63
2023/02/13 07:52:37;;;;;;;9.80;5.30;;;;;;;9.37;45.91;103435.50;5035023;28;20516;-62
2023/02/13 07:55:04;;;;;;;9.68;5.32;;;;;;;9.46;45.18;103429.81;5035207;28;20037;-63
2023/02/13 07:57:30;;;;;;;16.00;6.30;;;;;;;9.54;45.48;103432.19;5019107;28;20025;-63
2023/02/13 07:59:56;;;;;;;12.45;6.28;;;;;;;9.62;45.14;103430.09;5052973;28;20037;-63
2023/02/13 08:02:21;;;;;;;14.63;6.28;;;;;;;9.71;45.55;103435.97;5035205;28;20132;-63
2023/02/13 08:04:47;;;;;;;12.02;5.57;;;;;;;9.78;45.32;103437.47;5052845;28;20040;-62
2023/02/13 08:07:14;;;;;;;16.52;7.45;;;;;;;9.87;45.38;103430.88;5035140;28;20033;-62
2023/02/13 08:12:23;;;;;;;13.60;7.55;;;;;;;10.08;45.23;103434.53;5054039;28;20063;-62
2023/02/13 08:14:48;;;;;;;12.98;6.20;;;;;;;10.20;45.24;103432.22;5053256;28;20501;-62
2023/02/13 08:17:14;;;;;;;12.02;6.60;;;;;;;10.33;45.01;103435.28;5035379;28;20619;-63
2023/02/13 08:19:39;;;;;;;8.90;5.10;;;;;;;10.44;45.25;103433.03;5052768;28;20033;-62
2023/02/13 08:22:04;;;;;;;14.43;7.22;;;;;;;10.54;44.87;103434.38;5008526;28;20657;-62
2023/02/13 08:24:31;;;;;;;13.63;6.72;;;;;;;10.66;44.85;103433.00;4999047;28;20033;-63
2023/02/13 08:26:56;;;;;;;14.73;6.55;;;;;;;10.75;44.75;103433.44;4998471;28;20041;-62
2023/02/13 08:29:22;;;;;;;14.35;7.03;;;;;;;10.85;45.00;103429.44;5014262;28;20124;-61
2023/02/13 08:31:47;;;;;;;14.00;6.75;;;;;;;11.00;45.05;103434.13;5014871;28;20037;-62
2023/02/13 08:34:13;;;;;;;16.13;6.60;;;;;;;11.16;44.07;103436.13;5032637;28;20048;-62
2023/02/13 08:36:38;;;;;;;18.42;6.75;;;;;;;11.26;44.44;103437.44;5015160;28;20041;-62
2023/02/13 08:39:03;;;;;;;17.95;8.07;;;;;;;11.47;44.67;103439.16;5015100;28;20482;-63
2023/02/13 08:41:29;;;;;;;11.48;6.22;;;;;;;11.63;44.38;103442.88;5030932;28;20045;-63
2023/02/13 08:43:54;;;;;;;13.48;6.95;;;;;;;11.79;44.54;103446.59;4998555;28;20042;-62
2023/02/13 08:46:20;;;;;;;13.38;7.10;;;;;;;11.99;44.29;103442.97;5015042;28;20042;-62
2023/02/13 08:48:45;;;;;;;15.05;6.82;;;;;;;12.19;44.84;103440.19;5014914;28;20033;-62
2023/02/13 08:51:12;;;;;;;12.95;7.13;;;;;;;12.39;44.39;103452.63;5015465;28;20029;-62
2023/02/13 08:53:37;;;;;;;18.30;7.05;;;;;;;12.57;44.19;103457.94;5014819;28;20044;-62
2023/02/13 08:56:03;;;;;;;13.90;6.75;;;;;;;12.78;43.54;103456.00;5032314;28;20041;-62
2023/02/13 08:58:29;;;;;;;16.63;8.63;;;;;;;12.99;44.87;103459.38;5032359;28;20037;-63
2023/02/13 09:00:54;;;;;;;15.90;8.00;;;;;;;13.22;43.89;103462.66;5014828;28;20048;-63
2023/02/13 09:03:20;;;;;;;19.92;8.45;;;;;;;13.48;43.02;103457.69;5031532;28;20188;-62
2023/02/13 09:05:46;;;;;;;16.35;8.55;;;;;;;13.76;42.99;103466.00;5032473;28;20040;-63
2023/02/13 09:08:12;;;;;;;15.82;8.35;;;;;;;14.01;43.77;103458.28;5014990;28;20037;-63
2023/02/13 09:10:38;;;;;;;16.35;7.25;;;;;;;14.28;42.31;103456.69;5014887;28;20030;-63
2023/02/13 09:13:04;;;;;;;11.30;6.78;;;;;;;14.53;42.81;103450.75;5014648;28;20060;-62
2023/02/13 09:15:30;;;;;;;13.00;7.03;;;;;;;14.76;43.85;103449.41;5032627;28;20072;-62
2023/02/13 09:17:55;;;;;;;17.75;8.13;;;;;;;15.04;42.49;103457.56;5014582;28;20517;-62
2023/02/13 09:20:21;;;;;;;17.17;8.15;;;;;;;15.29;42.56;103455.09;5022583;28;20033;-62
2023/02/13 09:22:46;;;;;;;16.38;8.05;;;;;;;15.54;43.65;103457.16;5017734;28;20033;-63
2023/02/13 09:25:12;;;;;;;12.38;6.63;;;;;;;15.80;43.02;103450.94;5017716;28;20083;-63
2023/02/13 09:27:40;;;;;;;17.25;7.45;;;;;;;16.04;42.06;103448.50;5020755;28;20114;-63
2023/02/13 09:30:07;;;;;;;16.58;7.40;;;;;;;16.26;41.47;103441.56;5056101;28;20029;-63
2023/02/13 09:32:33;;;;;;;15.02;7.55;;;;;;;16.53;42.75;103448.78;5055549;28;20060;-63
2023/02/13 09:34:59;;;;;;;15.60;6.72;;;;;;;16.82;40.96;103447.72;5049689;28;20029;-63
2023/02/13 09:37:25;;;;;;;17.05;9.57;;;;;;;17.16;41.87;103441.69;5020968;28;20021;-63
2023/02/13 09:39:51;;;;;;;14.93;8.23;;;;;;;18.31;39.33;103438.66;5037691;28;20025;-61
2023/02/13 09:42:37;;;;;;;16.05;7.97;;;;;;;18.91;38.99;103433.13;5038077;28;20049;-63
2023/02/13 09:45:04;;;;;;;15.75;6.97;;;;;;;18.78;39.52;103435.06;5038387;28;20041;-63
2023/02/13 09:47:30;;;;;;;15.00;7.30;;;;;;;19.07;39.43;103435.47;5037443;28;20497;-64
2023/02/13 09:49:59;;;;;;;13.68;7.15;;;;;;;19.39;39.50;103436.56;5036595;28;20091;-63
2023/02/13 09:52:27;;;;;;;17.90;8.27;;;;;;;19.76;39.17;103434.47;5048319;28;20400;-63
2023/02/13 09:54:52;;;;;;;12.10;6.47;;;;;;;20.06;39.19;103431.94;5035998;28;20025;-64
2023/02/13 09:57:34;;;;;;;17.17;8.20;;;;;;;20.45;39.26;103427.75;5037655;28;20079;-64
2023/02/13 10:00:12;;;;;;;13.65;6.82;;;;;;;20.80;39.02;103422.88;5020423;28;20053;-64
2023/02/13 10:02:37;;;;;;;13.77;7.45;;;;;;;21.18;38.42;103416.84;5021270;28;20029;-64
2023/02/13 10:05:21;;;;;;;15.50;7.15;;;;;;;21.65;38.60;103422.66;5055069;28;20063;-64
2023/02/13 10:07:49;;;;;;;12.73;6.03;;;;;;;21.99;38.23;103426.81;5037131;28;20043;-64
2023/02/13 10:10:57;;;;;;;11.43;6.72;;;;;;;22.40;37.12;103417.50;5036888;28;20396;-64
2023/02/13 10:13:30;;;;;;;13.35;6.88;;;;;;;22.78;37.52;103422.16;5037054;28;20115;-64
2023/02/13 10:16:11;;;;;;;13.15;6.00;;;;;;;23.14;37.35;103418.63;5019763;28;20044;-64
2023/02/13 10:19:02;;;;;;;9.50;5.93;;;;;;;23.54;36.27;103421.94;5000684;28;20049;-64
2023/02/13 10:21:32;;;;;;;11.68;6.85;;;;;;;23.85;36.57;103424.38;5017416;28;20026;-64
2023/02/13 10:24:03;;;;;;;10.57;6.47;;;;;;;24.10;36.38;103419.06;5016878;28;20563;-64
2023/02/13 10:26:44;;;;;;;10.27;6.18;;;;;;;24.42;35.68;103418.56;5016854;28;20065;-64
2023/02/13 10:30:05;;;;;;;17.08;5.97;;;;;;;24.71;35.50;103419.13;5018604;28;20041;-64
2023/02/13 10:32:47;;;;;;;13.77;6.60;;;;;;;24.98;35.57;103418.19;5022457;28;20113;-64
2023/02/13 10:35:20;;;;;;;11.63;6.32;;;;;;;25.21;35.44;103421.28;5023114;28;20033;-64
2023/02/13 10:37:49;;;;;;;13.40;6.63;;;;;;;25.41;34.81;103417.25;5047616;28;20444;-64
2023/02/13 10:40:16;;;;;;;9.05;5.88;;;;;;;25.58;35.23;103419.09;5000592;28;20057;-64
2023/02/13 10:42:46;;;;;;;11.48;6.40;;;;;;;25.74;34.38;103415.56;5016383;28;20071;-64
2023/02/13 10:45:39;;;;;;;10.43;6.03;;;;;;;25.93;34.38;103407.91;5017379;28;20473;-64
2023/02/13 10:48:16;;;;;;;8.98;5.78;;;;;;;26.11;34.45;103412.41;5033088;28;20071;-64
2023/02/13 10:50:52;;;;;;;10.45;6.35;;;;;;;26.29;34.15;103407.66;5016399;28;20029;-64
2023/02/13 10:53:53;;;;;;;11.50;5.63;;;;;;;26.38;34.59;103406.66;5033002;28;20061;-64
2023/02/13 10:56:26;;;;;;;10.85;6.13;;;;;;;26.53;34.30;103405.78;4973028;28;20043;-64
2023/02/13 10:59:13;;;;;;;17.08;6.30;;;;;;;26.64;33.40;103396.34;5006824;28;20113;-64
2023/02/13 11:01:54;;;;;;;13.52;6.57;;;;;;;26.75;33.29;103390.47;5040388;28;20036;-64
2023/02/13 11:04:19;;;;;;;12.40;6.78;;;;;;;26.85;33.06;103396.72;5052760;28;20044;-64
2023/02/13 11:07:00;;;;;;;17.95;7.90;;;;;;;26.97;33.23;103391.69;5053617;28;20397;-63
2023/02/13 11:09:27;;;;;;;15.77;7.55;;;;;;;27.00;33.09;103392.19;5019558;28;20632;-63
2023/02/13 11:11:52;;;;;;;13.02;7.47;;;;;;;27.00;33.14;103392.19;5019410;28;20135;-64
2023/02/13 11:14:21;;;;;;;12.65;7.05;;;;;;;27.04;33.12;103390.84;5019273;28;20128;-64
2023/02/13 11:16:57;;;;;;;15.95;7.47;;;;;;;27.04;32.60;103381.72;5052557;28;20033;-64
2023/02/13 11:19:36;;;;;;;13.23;7.47;;;;;;;27.11;33.00;103380.81;5019141;28;20029;-64
2023/02/13 11:22:07;;;;;;;16.58;7.50;;;;;;;27.19;33.17;103380.78;5019076;28;20071;-64
2023/02/13 11:24:33;;;;;;;18.77;7.68;;;;;;;27.26;32.18;103371.84;5052758;28;20032;-64
2023/02/13 11:27:07;;;;;;;14.82;7.22;;;;;;;27.33;32.25;103370.09;5019179;28;20032;-64
2023/02/13 11:29:34;;;;;;;10.80;6.10;;;;;;;27.40;32.44;103360.94;5053348;28;20116;-64
2023/02/13 11:32:27;;;;;;;14.65;7.10;;;;;;;27.45;32.05;103358.53;5035371;28;20148;-65
2023/02/13 11:34:55;;;;;;;13.10;6.72;;;;;;;27.52;32.61;103355.94;5011396;28;20029;-64
2023/02/13 11:37:27;;;;;;;11.18;6.18;;;;;;;27.56;31.63;103349.88;5016164;28;20072;-64
2023/02/13 11:39:58;;;;;;;14.50;6.85;;;;;;;27.59;31.70;103354.19;5031964;28;20024;-65
2023/02/13 11:42:30;;;;;;;13.13;6.25;;;;;;;27.68;31.42;103344.84;5032094;28;20084;-65
2023/02/13 11:45:05;;;;;;;10.95;6.47;;;;;;;27.73;31.47;103342.41;5031810;28;20041;-64
2023/02/13 11:47:40;;;;;;;12.68;6.65;;;;;;;27.75;31.34;103343.94;5015231;28;20063;-64
2023/02/13 11:50:27;;;;;;;11.95;6.35;;;;;;;27.80;31.71;103337.88;5031823;28;20041;-65
2023/02/13 11:53:06;;;;;;;13.05;7.68;;;;;;;27.83;31.26;103333.91;5032633;28;20037;-64
2023/02/13 11:55:37;;;;;;;15.30;6.85;;;;;;;27.84;31.21;103330.97;5031759;28;20378;-65
2023/02/13 11:58:24;;;;;;;12.68;6.38;;;;;;;27.89;32.08;103334.03;5032006;28;20075;-65
2023/02/13 12:00:49;;;;;;;9.90;6.30;;;;;;;27.96;31.87;103323.13;5035359;28;20063;-65
2023/02/13 12:03:21;;;;;;;10.82;6.78;;;;;;;28.00;31.05;103324.50;5018805;28;20025;-65
2023/02/13 12:06:12;;;;;;;15.00;6.78;;;;;;;28.01;30.88;103318.78;5052642;28;20436;-65
2023/02/13 12:08:39;;;;;;;11.65;5.85;;;;;;;28.03;31.35;103313.16;5052530;28;20509;-65
2023/02/13 12:11:26;;;;;;;11.00;6.05;;;;;;;28.00;30.86;103319.81;5035038;28;20051;-65
2023/02/13 12:13:52;;;;;;;9.70;5.15;;;;;;;27.95;31.61;103322.28;5034943;28;20029;-64
2023/02/13 12:16:41;;;;;;;8.75;5.40;;;;;;;27.88;31.08;103324.06;5052709;28;20025;-66
2023/02/13 12:19:11;;;;;;;12.90;5.57;;;;;;;27.83;31.94;103322.88;5052458;28;20139;-64